createdAt,value
2022-09-26T00:02:01.485Z,80.00
2022-09-26T00:04:32.948Z,92.67
2022-09-26T00:07:02.632Z,94.33
2022-09-26T00:09:31.959Z,86.00
2022-09-26T00:12:03.602Z,100.67
2022-09-26T00:14:33.198Z,92.50
2022-09-26T00:17:02.608Z,93.33
2022-09-26T00:19:32.016Z,86.00
2022-09-26T00:22:03.061Z,91.00
2022-09-26T00:24:32.531Z,89.75
2022-09-26T00:27:02.156Z,86.25
2022-09-26T00:29:31.551Z,90.00
2022-09-26T00:32:02.923Z,80.25
2022-09-26T00:34:32.591Z,94.00
2022-09-26T00:37:03.129Z,88.33
2022-09-26T00:39:32.517Z,92.67
2022-09-26T00:42:02.601Z,87.67
2022-09-26T00:44:52.186Z,86.25
2022-09-26T00:47:41.593Z,78.50
2022-09-26T00:50:14.590Z,86.67
2022-09-26T00:52:47.101Z,82.25
2022-09-26T00:55:19.121Z,91.33
2022-09-26T00:57:56.605Z,83.00
2022-09-26T01:00:26.263Z,85.33
2022-09-26T01:02:55.781Z,88.75
2022-09-26T01:05:25.793Z,83.00
2022-09-26T01:07:55.793Z,79.75
2022-09-26T01:10:25.839Z,87.50
2022-09-26T01:12:57.169Z,78.50
2022-09-26T01:15:26.756Z,85.00
2022-09-26T01:17:56.396Z,81.25
2022-09-26T01:20:31.001Z,84.25
2022-09-26T01:23:05.965Z,81.00
2022-09-26T01:26:01.336Z,87.50
2022-09-26T01:28:54.583Z,86.33
2022-09-26T01:31:27.144Z,82.75
2022-09-26T01:33:59.906Z,84.00
2022-09-26T01:36:42.976Z,85.50
2022-09-26T01:39:39.112Z,88.00
2022-09-26T01:42:23.894Z,83.25
2022-09-26T01:44:53.328Z,83.25
2022-09-26T01:47:33.156Z,79.75
2022-09-26T01:50:03.225Z,78.75
2022-09-26T01:52:38.458Z,89.75
2022-09-26T01:55:10.713Z,75.00
2022-09-26T01:58:00.286Z,78.75
2022-09-26T02:00:32.984Z,88.75
2022-09-26T02:03:06.154Z,83.25
2022-09-26T02:05:48.671Z,75.25
2022-09-26T02:08:25.854Z,77.75
2022-09-26T02:11:03.562Z,82.00
2022-09-26T02:13:43.506Z,77.00
2022-09-26T02:16:16.441Z,85.50
2022-09-26T02:18:49.146Z,76.25
2022-09-26T02:21:21.135Z,78.00
2022-09-26T02:23:51.370Z,80.75
2022-09-26T02:26:23.949Z,76.75
2022-09-26T02:28:54.058Z,80.00
2022-09-26T02:31:27.593Z,75.25
2022-09-26T02:33:57.451Z,78.75
2022-09-26T02:36:29.468Z,78.00
2022-09-26T02:38:58.798Z,76.75
2022-09-26T02:41:58.876Z,72.00
2022-09-26T02:44:46.253Z,75.00
2022-09-26T02:47:28.174Z,75.25
2022-09-26T02:50:10.129Z,77.75
2022-09-26T02:52:54.732Z,76.25
2022-09-26T02:55:41.843Z,75.50
2022-09-26T02:58:18.664Z,73.00
2022-09-26T03:01:06.395Z,72.50
2022-09-26T03:03:45.014Z,73.00
2022-09-26T03:06:16.982Z,73.00
2022-09-26T03:08:49.313Z,70.75
2022-09-26T03:11:27.390Z,70.25
2022-09-26T03:13:58.029Z,73.25
2022-09-26T03:16:30.395Z,73.50
2022-09-26T03:19:08.035Z,71.25
2022-09-26T03:21:37.899Z,73.75
2022-09-26T03:24:07.948Z,75.00
2022-09-26T03:26:38.012Z,71.75
2022-09-26T03:29:07.700Z,70.50
2022-09-26T03:31:38.148Z,72.50
2022-09-26T03:34:09.083Z,73.25
2022-09-26T03:36:41.148Z,72.25
2022-09-26T03:39:16.282Z,72.50
2022-09-26T03:42:03.887Z,72.00
2022-09-26T03:44:34.935Z,75.75
2022-09-26T03:47:04.777Z,69.00
2022-09-26T03:49:40.338Z,68.50
2022-09-26T03:52:15.107Z,71.25
2022-09-26T03:54:46.449Z,70.50
2022-09-26T03:57:18.266Z,67.00
2022-09-26T04:00:04.046Z,70.00
2022-09-26T04:02:45.482Z,73.00
2022-09-26T04:05:35.349Z,68.75
2022-09-26T04:08:05.340Z,69.75
2022-09-26T04:10:35.403Z,71.00
2022-09-26T04:13:04.983Z,69.75
2022-09-26T04:15:34.416Z,68.75
2022-09-26T04:18:08.419Z,70.50
2022-09-26T04:20:38.967Z,73.25
2022-09-26T04:23:08.579Z,74.00
2022-09-26T04:25:39.190Z,75.75
2022-09-26T04:28:09.507Z,73.50
2022-09-26T04:30:38.872Z,72.25
2022-09-26T04:33:08.425Z,70.75
2022-09-26T04:35:38.246Z,74.00
2022-09-26T04:38:10.095Z,71.50
2022-09-26T04:40:42.819Z,73.75
2022-09-26T04:43:14.335Z,75.50
2022-09-26T04:45:44.546Z,74.00
2022-09-26T04:48:15.418Z,72.25
2022-09-26T04:51:09.935Z,71.00
2022-09-26T04:53:40.666Z,72.50
2022-09-26T04:56:23.185Z,74.25
2022-09-26T04:58:52.865Z,68.75
2022-09-26T05:01:22.834Z,71.00
2022-09-26T05:04:11.265Z,75.50
2022-09-26T05:06:41.031Z,68.00
2022-09-26T05:09:17.259Z,74.25
2022-09-26T05:11:54.607Z,72.75
2022-09-26T05:14:23.935Z,77.25
2022-09-26T05:16:54.983Z,73.00
2022-09-26T05:19:25.530Z,78.00
2022-09-26T05:22:13.177Z,73.50
2022-09-26T05:25:00.709Z,72.50
2022-09-26T05:27:30.195Z,75.50
2022-09-26T05:29:59.562Z,75.50
2022-09-26T05:32:30.326Z,69.25
2022-09-26T05:35:00.035Z,74.00
2022-09-26T05:37:32.301Z,70.25
2022-09-26T05:40:20.605Z,75.00
2022-09-26T05:42:53.739Z,73.25
2022-09-26T05:45:24.378Z,74.75
2022-09-26T05:47:54.905Z,71.50
2022-09-26T05:50:25.894Z,70.75
2022-09-26T05:52:59.381Z,70.50
2022-09-26T05:55:31.657Z,73.00
2022-09-26T05:58:03.845Z,72.75
2022-09-26T06:01:02.772Z,75.50
2022-09-26T06:03:35.765Z,70.75
2022-09-26T06:06:19.064Z,74.25
2022-09-26T06:08:50.306Z,76.25
2022-09-26T06:11:28.801Z,70.00
2022-09-26T06:13:59.913Z,73.75
2022-09-26T06:16:29.740Z,71.00
2022-09-26T06:18:59.888Z,76.00
2022-09-26T06:21:29.392Z,68.75
2022-09-26T06:24:05.864Z,74.00
2022-09-26T06:26:35.256Z,70.25
2022-09-26T06:29:05.430Z,73.50
2022-09-26T06:31:41.825Z,75.00
2022-09-26T06:34:13.439Z,72.50
2022-09-26T06:36:55.885Z,72.75
2022-09-26T06:39:25.379Z,73.75
2022-09-26T06:41:57.263Z,75.00
2022-09-26T06:44:37.234Z,70.00
2022-09-26T06:47:36.140Z,72.75
2022-09-26T06:50:24.498Z,73.75
2022-09-26T06:52:57.471Z,72.25
2022-09-26T06:55:27.723Z,69.00
2022-09-26T06:57:57.188Z,72.50
2022-09-26T07:00:32.390Z,81.00
2022-09-26T07:03:20.946Z,76.25
2022-09-26T07:05:59.340Z,77.00
2022-09-26T07:08:57.220Z,77.25
2022-09-26T07:11:56.150Z,81.25
2022-09-26T07:14:10.333Z,87.00
2022-09-26T07:16:40.268Z,73.00
2022-09-26T07:19:25.192Z,74.75
2022-09-26T07:22:03.830Z,72.25
2022-09-26T07:24:38.723Z,81.00
2022-09-26T07:27:08.378Z,76.00
2022-09-26T07:29:37.935Z,77.50
2022-09-26T07:32:07.933Z,79.75
2022-09-26T07:34:51.277Z,74.75
2022-09-26T07:37:21.546Z,78.25
2022-09-26T07:39:54.129Z,74.25
2022-09-26T07:42:24.856Z,75.00
2022-09-26T07:45:20.872Z,74.25
2022-09-26T07:48:02.091Z,76.75
2022-09-26T07:51:03.504Z,77.25
2022-09-26T07:53:53.950Z,77.75
2022-09-26T07:56:44.557Z,77.00
2022-09-26T07:59:24.104Z,76.25
2022-09-26T08:02:35.315Z,74.00
2022-09-26T08:05:07.471Z,76.00
2022-09-26T08:07:36.795Z,76.75
2022-09-26T08:10:21.434Z,74.50
2022-09-26T08:13:11.276Z,76.00
2022-09-26T08:16:05.057Z,81.00
2022-09-26T08:18:39.300Z,78.75
2022-09-26T08:21:09.477Z,77.50
2022-09-26T08:23:38.929Z,75.50
2022-09-26T08:26:28.374Z,81.50
2022-09-26T08:29:17.123Z,76.50
2022-09-26T08:31:49.308Z,79.25
2022-09-26T08:34:24.133Z,83.75
2022-09-26T08:37:30.087Z,74.75
2022-09-26T08:40:17.371Z,80.00
2022-09-26T08:43:31.427Z,82.00
2022-09-26T08:46:56.402Z,80.25
2022-09-26T08:50:05.737Z,79.25
2022-09-26T08:52:39.525Z,81.75
2022-09-26T08:55:29.123Z,77.00
2022-09-26T08:57:58.605Z,75.00
2022-09-26T09:00:28.923Z,78.00
2022-09-26T09:03:23.844Z,76.75
2022-09-26T09:05:57.935Z,76.50
2022-09-26T09:08:32.566Z,76.50
2022-09-26T09:11:21.846Z,78.25
2022-09-26T09:14:14.791Z,77.25
2022-09-26T09:17:16.523Z,78.00
2022-09-26T09:20:22.776Z,75.25
2022-09-26T09:23:14.511Z,73.25
2022-09-26T09:25:50.610Z,73.75
2022-09-26T09:28:25.002Z,77.00
2022-09-26T09:30:59.998Z,72.75
2022-09-26T09:33:42.681Z,75.00
2022-09-26T09:36:55.850Z,75.75
2022-09-26T09:39:52.906Z,73.25
2022-09-26T09:42:45.312Z,75.75
2022-09-26T09:45:35.589Z,75.50
2022-09-26T09:48:05.912Z,74.00
2022-09-26T09:50:35.252Z,68.00
2022-09-26T09:53:15.499Z,72.75
2022-09-26T09:56:09.353Z,74.00
2022-09-26T09:58:45.112Z,70.75
2022-09-26T10:01:20.936Z,68.75
2022-09-26T10:03:51.756Z,72.00
2022-09-26T10:06:45.747Z,75.50
2022-09-26T10:09:35.230Z,72.75
2022-09-26T10:12:34.391Z,72.75
2022-09-26T10:15:23.514Z,76.00
2022-09-26T10:18:25.300Z,77.25
2022-09-26T10:21:14.037Z,80.50
2022-09-26T10:23:49.132Z,76.25
2022-09-26T10:26:39.106Z,81.25
2022-09-26T10:29:36.512Z,74.25
2022-09-26T10:32:07.843Z,81.50
2022-09-26T10:34:39.870Z,90.00
2022-09-26T10:37:26.902Z,81.75
2022-09-26T10:40:36.793Z,75.75
2022-09-26T10:43:44.948Z,81.75
2022-09-26T10:46:29.537Z,81.00
2022-09-26T10:49:38.617Z,85.25
2022-09-26T10:52:39.901Z,83.25
2022-09-26T10:55:13.932Z,91.00
2022-09-26T10:57:47.165Z,94.33
2022-09-26T11:00:40.332Z,102.00
2022-09-26T11:03:19.023Z,98.67
2022-09-26T11:06:07.900Z,100.67
2022-09-26T11:08:39.715Z,96.00
2022-09-26T11:11:23.786Z,101.33
2022-09-26T11:14:08.222Z,99.00
2022-09-26T11:16:46.277Z,99.67
2022-09-26T11:19:22.059Z,93.67
2022-09-26T11:22:03.183Z,97.33
2022-09-26T11:24:47.181Z,103.00
2022-09-26T11:27:35.047Z,104.33
2022-09-26T11:30:13.609Z,99.00
2022-09-26T11:33:00.418Z,109.33
2022-09-26T11:35:45.244Z,101.67
2022-09-26T11:38:15.697Z,98.33
2022-09-26T11:40:45.367Z,106.33
2022-09-26T11:43:37.861Z,96.33
2022-09-26T11:46:32.657Z,96.67
2022-09-26T11:49:36.821Z,100.67
2022-09-26T11:52:44.295Z,90.00
2022-09-26T11:55:22.594Z,92.25
2022-09-26T11:58:03.633Z,90.75
2022-09-26T12:00:48.909Z,85.75
2022-09-26T12:03:21.402Z,85.50
2022-09-26T12:05:55.045Z,83.50
2022-09-26T12:08:37.946Z,84.75
2022-09-26T12:11:08.247Z,90.75
2022-09-26T12:13:55.520Z,82.25
2022-09-26T12:16:37.302Z,78.50
2022-09-26T12:19:08.110Z,84.50
2022-09-26T12:22:08.329Z,78.50
2022-09-26T12:24:41.777Z,91.25
2022-09-26T12:27:21.731Z,76.75
2022-09-26T12:29:58.091Z,83.75
2022-09-26T12:32:53.827Z,78.75
2022-09-26T12:35:45.409Z,76.75
2022-09-26T12:38:41.257Z,77.25
2022-09-26T12:41:21.359Z,77.00
2022-09-26T12:43:54.587Z,85.75
2022-09-26T12:46:42.332Z,75.75
2022-09-26T12:49:23.760Z,83.00
2022-09-26T12:51:56.209Z,80.00
2022-09-26T12:54:38.098Z,78.00
2022-09-26T12:57:27.735Z,75.25
2022-09-26T13:00:03.341Z,80.25
2022-09-26T13:02:34.863Z,78.75
2022-09-26T13:05:19.142Z,76.25
2022-09-26T13:07:55.002Z,72.75
2022-09-26T13:10:34.588Z,73.75
2022-09-26T13:13:26.378Z,73.50
2022-09-26T13:16:14.594Z,76.00
2022-09-26T13:18:52.369Z,77.00
2022-09-26T13:21:26.298Z,76.50
2022-09-26T13:23:59.199Z,71.25
2022-09-26T13:26:31.842Z,75.75
2022-09-26T13:29:17.913Z,76.50
2022-09-26T13:31:50.690Z,72.50
2022-09-26T13:34:20.745Z,72.00
2022-09-26T13:36:51.591Z,75.00
2022-09-26T13:39:41.166Z,74.75
2022-09-26T13:42:29.012Z,72.75
2022-09-26T13:45:21.586Z,73.75
2022-09-26T13:48:31.423Z,73.00
2022-09-26T13:51:27.540Z,72.75
2022-09-26T13:54:18.125Z,72.75
2022-09-26T13:56:51.791Z,76.75
2022-09-26T13:59:21.303Z,73.50
2022-09-26T14:02:09.054Z,72.50
2022-09-26T14:04:38.643Z,74.50
2022-09-26T14:07:34.099Z,69.50
2022-09-26T14:10:09.004Z,68.25
2022-09-26T14:12:55.598Z,70.25
2022-09-26T14:15:30.196Z,73.25
2022-09-26T14:18:10.478Z,72.75
2022-09-26T14:20:52.159Z,72.00
2022-09-26T14:23:42.152Z,71.00
2022-09-26T14:26:15.500Z,71.25
2022-09-26T14:28:55.917Z,71.50
2022-09-26T14:31:28.971Z,71.25
2022-09-26T14:34:15.989Z,73.75
2022-09-26T14:36:46.705Z,70.25
2022-09-26T14:39:33.557Z,73.25
2022-09-26T14:42:13.204Z,72.50
2022-09-26T14:44:49.475Z,72.50
2022-09-26T14:47:19.098Z,70.50
2022-09-26T14:49:55.626Z,72.50
2022-09-26T14:52:26.868Z,69.00
2022-09-26T14:54:58.043Z,68.25
2022-09-26T14:57:30.464Z,74.50
2022-09-26T15:00:01.863Z,72.25
2022-09-26T15:02:39.859Z,73.00
2022-09-26T15:05:13.010Z,71.00
2022-09-26T15:07:54.129Z,73.75
2022-09-26T15:10:25.760Z,68.25
2022-09-26T15:13:13.556Z,70.50
2022-09-26T15:15:52.801Z,69.50
2022-09-26T15:18:28.672Z,73.75
2022-09-26T15:21:04.988Z,71.50
2022-09-26T15:23:36.520Z,70.75
2022-09-26T15:26:06.862Z,72.75
2022-09-26T15:28:39.638Z,73.00
2022-09-26T15:31:27.333Z,69.75
2022-09-26T15:33:57.139Z,76.00
2022-09-26T15:36:29.343Z,71.75
2022-09-26T15:38:59.834Z,69.50
2022-09-26T15:41:47.301Z,69.75
2022-09-26T15:44:25.725Z,70.25
2022-09-26T15:46:55.686Z,71.50
2022-09-26T15:49:30.004Z,73.50
2022-09-26T15:51:59.518Z,70.75
2022-09-26T15:54:31.832Z,71.75
2022-09-26T15:57:08.378Z,70.25
2022-09-26T15:59:42.230Z,71.25
2022-09-26T16:02:39.433Z,71.50
2022-09-26T16:05:12.909Z,72.75
2022-09-26T16:07:49.213Z,73.50
2022-09-26T16:10:29.809Z,73.25
2022-09-26T16:13:02.079Z,70.75
2022-09-26T16:15:33.495Z,71.75
2022-09-26T16:18:03.079Z,71.00
2022-09-26T16:20:34.792Z,72.50
2022-09-26T16:23:05.931Z,70.75
2022-09-26T16:25:54.306Z,70.50
2022-09-26T16:28:40.907Z,70.50
2022-09-26T16:31:19.148Z,73.75
2022-09-26T16:33:51.812Z,73.25
2022-09-26T16:36:37.453Z,73.00
2022-09-26T16:39:18.884Z,72.50
2022-09-26T16:42:03.557Z,72.25
2022-09-26T16:44:40.773Z,68.50
2022-09-26T16:47:28.372Z,71.00
2022-09-26T16:49:58.064Z,73.00
2022-09-26T16:52:37.661Z,75.25
2022-09-26T16:55:08.016Z,71.75
2022-09-26T16:57:40.011Z,73.50
2022-09-26T17:00:35.056Z,69.50
2022-09-26T17:03:06.250Z,72.00
2022-09-26T17:05:36.031Z,70.50
2022-09-26T17:08:05.693Z,73.25
2022-09-26T17:10:39.692Z,71.75
2022-09-26T17:13:14.202Z,69.25
2022-09-26T17:15:45.090Z,71.25
2022-09-26T17:18:16.983Z,76.50
2022-09-26T17:20:47.435Z,75.00
2022-09-26T17:23:38.766Z,71.25
2022-09-26T17:26:08.224Z,72.00
2022-09-26T17:28:39.110Z,72.75
2022-09-26T17:31:10.318Z,69.50
2022-09-26T17:33:41.939Z,71.75
2022-09-26T17:36:19.509Z,71.50
2022-09-26T17:38:49.175Z,74.25
2022-09-26T17:41:18.764Z,72.75
2022-09-26T17:43:48.237Z,74.25
2022-09-26T17:46:17.810Z,70.00
2022-09-26T17:48:47.302Z,71.25
2022-09-26T17:51:16.921Z,71.75
2022-09-26T17:53:50.906Z,71.25
2022-09-26T17:56:21.686Z,74.25
2022-09-26T17:58:52.107Z,71.50
2022-09-26T18:01:35.567Z,72.50
2022-09-26T18:04:13.969Z,70.00
2022-09-26T18:06:44.250Z,68.75
2022-09-26T18:09:22.238Z,73.50
2022-09-26T18:12:02.025Z,70.50
2022-09-26T18:14:34.053Z,70.75
2022-09-26T18:17:04.597Z,70.00
2022-09-26T18:19:36.450Z,72.50
2022-09-26T18:22:06.677Z,73.50
2022-09-26T18:24:36.297Z,70.25
2022-09-26T18:27:08.468Z,71.50
2022-09-26T18:29:40.548Z,75.00
2022-09-26T18:32:23.086Z,70.25
2022-09-26T18:34:53.374Z,70.75
2022-09-26T18:37:22.728Z,73.75
2022-09-26T18:39:55.087Z,70.75
2022-09-26T18:42:26.567Z,74.50
2022-09-26T18:45:05.553Z,71.75
2022-09-26T18:47:37.547Z,74.25
2022-09-26T18:50:07.654Z,68.75
2022-09-26T18:52:37.150Z,70.25
2022-09-26T18:55:25.732Z,70.25
2022-09-26T18:58:13.232Z,69.50
2022-09-26T19:00:42.550Z,70.50
2022-09-26T19:03:12.214Z,69.25
2022-09-26T19:05:41.780Z,68.25
2022-09-26T19:08:20.214Z,73.50
2022-09-26T19:10:49.473Z,72.75
2022-09-26T19:13:20.319Z,72.25
2022-09-26T19:15:51.538Z,73.50
2022-09-26T19:18:21.077Z,73.00
2022-09-26T19:20:50.828Z,73.50
2022-09-26T19:23:20.431Z,73.25
2022-09-26T19:25:50.008Z,71.50
2022-09-26T19:28:23.217Z,72.50
2022-09-26T19:30:52.740Z,71.00
2022-09-26T19:33:22.517Z,71.50
2022-09-26T19:35:51.923Z,70.25
2022-09-26T19:38:26.120Z,74.00
2022-09-26T19:40:55.645Z,71.00
2022-09-26T19:43:25.245Z,70.50
2022-09-26T19:45:55.708Z,70.25
2022-09-26T19:48:25.637Z,71.25
2022-09-26T19:50:55.053Z,73.00
2022-09-26T19:53:25.671Z,72.00
2022-09-26T19:55:56.944Z,69.00
2022-09-26T19:58:27.395Z,72.75
2022-09-26T20:01:03.255Z,73.00
2022-09-26T20:03:41.271Z,70.50
2022-09-26T20:06:19.210Z,70.50
2022-09-26T20:08:49.892Z,70.00
2022-09-26T20:11:19.210Z,71.75
2022-09-26T20:14:08.345Z,72.75
2022-09-26T20:16:40.081Z,72.00
2022-09-26T20:19:12.986Z,71.75
2022-09-26T20:21:43.014Z,70.50
2022-09-26T20:24:16.597Z,70.50
2022-09-26T20:26:47.005Z,71.00
2022-09-26T20:29:17.170Z,70.75
2022-09-26T20:31:48.782Z,72.75
2022-09-26T20:34:18.677Z,70.75
2022-09-26T20:36:50.221Z,70.25
2022-09-26T20:39:21.731Z,72.00
2022-09-26T20:41:51.778Z,92.67
2022-09-26T20:44:21.314Z,104.67
2022-09-26T20:46:52.236Z,100.67
2022-09-26T20:49:23.875Z,98.67
2022-09-26T20:51:54.684Z,99.00
2022-09-26T20:54:26.476Z,101.67
2022-09-26T20:56:56.617Z,107.00
2022-09-26T20:59:27.035Z,99.00
2022-09-26T21:01:58.364Z,94.67
2022-09-26T21:04:32.750Z,95.33
2022-09-26T21:07:02.321Z,91.00
2022-09-26T21:09:32.569Z,93.33
2022-09-26T21:12:02.371Z,82.75
2022-09-26T21:14:32.498Z,82.50
2022-09-26T21:17:01.985Z,76.50
2022-09-26T21:19:33.969Z,75.50
2022-09-26T21:22:16.158Z,74.75
2022-09-26T21:24:52.286Z,77.75
2022-09-26T21:27:21.822Z,72.00
2022-09-26T21:29:51.176Z,71.75
2022-09-26T21:32:22.824Z,73.00
2022-09-26T21:35:01.248Z,73.00
2022-09-26T21:37:31.144Z,66.50
2022-09-26T21:40:00.611Z,66.50
2022-09-26T21:42:30.221Z,67.50
2022-09-26T21:45:02.931Z,62.75
2022-09-26T21:47:33.263Z,65.25
2022-09-26T21:50:02.758Z,65.25
2022-09-26T21:52:38.324Z,64.00
2022-09-26T21:55:09.384Z,62.50
2022-09-26T21:57:43.167Z,57.75
2022-09-26T22:00:13.690Z,59.75
2022-09-26T22:02:43.221Z,56.00
2022-09-26T22:05:13.823Z,57.25
2022-09-26T22:07:43.125Z,58.75
2022-09-26T22:10:12.467Z,59.25
2022-09-26T22:12:42.502Z,56.50
2022-09-26T22:15:12.067Z,56.75
2022-09-26T22:17:41.537Z,58.25
2022-09-26T22:20:11.145Z,60.75
2022-09-26T22:22:40.782Z,61.25
2022-09-26T22:25:10.273Z,60.00
2022-09-26T22:27:40.875Z,59.25
2022-09-26T22:30:10.704Z,56.75
2022-09-26T22:32:40.670Z,50.50
2022-09-26T22:35:09.996Z,51.25
2022-09-26T22:37:40.456Z,57.25
2022-09-26T22:40:10.095Z,47.75
2022-09-26T22:42:39.549Z,52.75
2022-09-26T22:45:09.109Z,52.25
2022-09-26T22:47:38.660Z,54.75
2022-09-26T22:50:08.028Z,50.75
2022-09-26T22:52:38.279Z,71.00
2022-09-26T22:55:09.230Z,65.50
2022-09-26T22:57:40.415Z,64.25
2022-09-26T23:00:10.345Z,68.25
2022-09-26T23:02:40.226Z,73.00
2022-09-26T23:05:09.809Z,73.25
2022-09-26T23:07:39.332Z,78.75
2022-09-26T23:10:08.926Z,77.00
2022-09-26T23:12:41.697Z,75.50
2022-09-26T23:15:11.411Z,73.25
2022-09-26T23:17:40.955Z,75.25
2022-09-26T23:20:10.623Z,75.00
2022-09-26T23:22:42.860Z,76.75
2022-09-26T23:25:15.840Z,75.25
2022-09-26T23:27:46.792Z,74.00
2022-09-26T23:30:16.335Z,77.50
2022-09-26T23:32:45.745Z,77.00
2022-09-26T23:35:16.154Z,73.50
2022-09-26T23:37:45.656Z,74.00
2022-09-26T23:40:15.241Z,77.00
2022-09-26T23:42:44.700Z,74.50
2022-09-26T23:45:14.148Z,77.50
2022-09-26T23:47:43.404Z,76.50
2022-09-26T23:50:12.678Z,74.00
2022-09-26T23:52:42.160Z,73.75
2022-09-26T23:55:11.785Z,75.75
2022-09-26T23:57:41.868Z,77.50
